createdAt,value
2018-09-17T00:05:43.937Z,16.92
2018-09-17T00:11:38.957Z,18.98
2018-09-17T00:17:33.919Z,18.55
2018-09-17T00:23:28.971Z,19.61
2018-09-17T00:29:23.936Z,19.06
2018-09-17T00:35:18.928Z,19.28
2018-09-17T00:41:13.931Z,19.3
2018-09-17T00:47:09.027Z,18.79
2018-09-17T00:53:03.945Z,21.18
2018-09-17T00:58:58.974Z,17
2018-09-17T01:04:53.953Z,24.3
2018-09-17T01:10:48.960Z,19.44
2018-09-17T01:16:43.967Z,16.63
2018-09-17T01:22:38.953Z,16.83
2018-09-17T01:28:33.951Z,17.4
2018-09-17T01:34:28.992Z,22.61
2018-09-17T01:40:24.022Z,25.78
2018-09-17T01:46:19.108Z,19.86
2018-09-17T01:52:13.989Z,18.57
2018-09-17T01:58:08.995Z,15.12
2018-09-17T02:04:04.008Z,19.81
2018-09-17T02:09:59.081Z,17.04
2018-09-17T02:15:54.071Z,18.36
2018-09-17T02:21:49.018Z,16.13
2018-09-17T02:27:44.013Z,15.94
2018-09-17T02:33:39.089Z,15.02
2018-09-17T02:39:34.006Z,17.38
2018-09-17T02:45:29.096Z,15.71
2018-09-17T02:51:24.018Z,11.81
2018-09-17T02:57:19.047Z,17.29
2018-09-17T03:03:14.018Z,18.34
2018-09-17T03:09:09.033Z,19.26
2018-09-17T03:15:04.062Z,19.59
2018-09-17T03:20:59.071Z,15.49
2018-09-17T03:26:54.059Z,18.07
2018-09-17T03:32:49.046Z,21.76
2018-09-17T03:38:44.076Z,17.5
2018-09-17T03:44:39.075Z,22.83
2018-09-17T03:50:34.099Z,20.26
2018-09-17T03:56:29.104Z,21.26
2018-09-17T04:02:24.084Z,15.88
2018-09-17T04:08:19.087Z,17.21
2018-09-17T04:14:14.124Z,15.8
2018-09-17T04:20:09.077Z,13.43
2018-09-17T04:26:04.103Z,13.78
2018-09-17T04:31:59.092Z,14.82
2018-09-17T04:37:54.108Z,16.91
2018-09-17T04:43:49.082Z,13.7
2018-09-17T04:49:44.102Z,14.47
2018-09-17T04:55:39.104Z,13.57
2018-09-17T05:01:34.102Z,14.63
2018-09-17T05:07:29.095Z,17.17
2018-09-17T05:13:24.337Z,15.18
2018-09-17T05:19:19.112Z,17.1
2018-09-17T05:25:14.130Z,14
2018-09-17T05:31:09.121Z,14.61
2018-09-17T05:37:04.156Z,13.83
2018-09-17T05:42:59.136Z,15.31
2018-09-17T05:48:54.123Z,15.45
2018-09-17T05:54:49.137Z,15.9
2018-09-17T06:00:44.154Z,50.43
2018-09-17T06:06:39.136Z,32.92
2018-09-17T06:12:34.172Z,46.8
2018-09-17T06:18:29.186Z,38
2018-09-17T06:24:24.152Z,28.22
2018-09-17T06:30:19.175Z,20.02
2018-09-17T06:36:14.291Z,17.31
2018-09-17T06:42:09.187Z,17.62
2018-09-17T06:48:04.182Z,16.9
2018-09-17T06:53:59.176Z,19.21
2018-09-17T06:59:54.178Z,32.86
2018-09-17T07:05:49.182Z,20.88
2018-09-17T07:11:44.180Z,26.43
2018-09-17T07:17:39.169Z,16.88
2018-09-17T07:23:34.211Z,19.74
2018-09-17T07:29:29.186Z,20.27
2018-09-17T07:35:24.233Z,19.59
2018-09-17T07:41:19.195Z,18.22
2018-09-17T07:47:14.210Z,17.81
2018-09-17T07:53:09.298Z,22.16
2018-09-17T07:59:04.237Z,66.66
2018-09-17T08:04:59.251Z,39.82
2018-09-17T08:10:54.202Z,42.32
2018-09-17T08:16:49.203Z,34.46
2018-09-17T08:22:44.252Z,23.23
2018-09-17T08:28:39.272Z,27.31
2018-09-17T08:34:34.233Z,29.31
2018-09-17T08:40:29.271Z,30.49
2018-09-17T08:46:24.283Z,28.65
2018-09-17T08:52:19.309Z,40.62
2018-09-17T08:58:14.337Z,30.31
2018-09-17T09:04:09.273Z,28.95
2018-09-17T09:10:04.257Z,40.25
2018-09-17T09:15:59.330Z,29.33
2018-09-17T09:21:54.271Z,28.64
2018-09-17T09:27:49.295Z,32.94
2018-09-17T09:33:44.272Z,25.12
2018-09-17T09:39:39.290Z,25.91
2018-09-17T09:45:34.277Z,30.68
2018-09-17T09:51:29.309Z,24.48
2018-09-17T09:57:24.295Z,32.77
2018-09-17T10:03:19.326Z,34.3
2018-09-17T10:09:14.327Z,34.87
2018-09-17T10:15:09.284Z,32.88
2018-09-17T10:21:04.304Z,27.04
2018-09-17T10:26:59.295Z,26.31
2018-09-17T10:32:54.313Z,29.13
2018-09-17T10:38:49.316Z,23.44
2018-09-17T10:44:44.323Z,18.4
2018-09-17T10:50:39.329Z,24.09
2018-09-17T10:56:34.348Z,21.65
2018-09-17T11:02:29.331Z,27.85
2018-09-17T11:08:24.387Z,18.24
2018-09-17T11:14:19.356Z,21
2018-09-17T11:20:14.356Z,22.27
2018-09-17T11:26:09.354Z,13.37
2018-09-17T11:32:04.345Z,10.91
2018-09-17T11:37:59.380Z,14.97
2018-09-17T11:43:54.387Z,8.09
2018-09-17T11:49:49.338Z,6.85
2018-09-17T11:55:44.380Z,14.77
2018-09-17T12:01:39.420Z,9.4
2018-09-17T12:07:34.389Z,8.92
2018-09-17T12:13:29.386Z,8.63
2018-09-17T12:19:24.427Z,7.85
2018-09-17T12:25:19.432Z,7.06
2018-09-17T12:31:14.504Z,9.49
2018-09-17T12:37:09.426Z,9.31
2018-09-17T12:43:04.394Z,8.74
2018-09-17T12:48:59.434Z,6.24
2018-09-17T12:54:54.405Z,5.15
2018-09-17T13:00:49.400Z,5.13
2018-09-17T13:06:44.456Z,5.73
2018-09-17T13:12:39.408Z,5.11
2018-09-17T13:18:34.413Z,4.49
2018-09-17T13:24:29.411Z,4.75
2018-09-17T13:30:24.418Z,3.47
2018-09-17T13:36:19.490Z,6.47
2018-09-17T13:42:14.494Z,7.24
2018-09-17T13:48:09.474Z,4.95
2018-09-17T13:54:04.443Z,2.58
2018-09-17T13:59:59.435Z,5.05
2018-09-17T14:05:54.455Z,2.7
2018-09-17T14:11:49.499Z,4.07
2018-09-17T14:17:44.466Z,2.19
2018-09-17T14:23:39.452Z,25.87
2018-09-17T14:29:34.490Z,3.7
2018-09-17T14:35:29.584Z,4.35
2018-09-17T14:41:24.499Z,4.81
2018-09-17T14:47:19.488Z,4.52
2018-09-17T14:53:14.486Z,3.72
2018-09-17T14:59:09.469Z,5.69
2018-09-17T15:05:04.502Z,2.43
2018-09-17T15:10:59.511Z,3.19
2018-09-17T15:16:54.530Z,13.26
2018-09-17T15:22:49.495Z,6.05
2018-09-17T15:28:44.552Z,6.05
2018-09-17T15:34:39.499Z,11.81
2018-09-17T15:40:34.557Z,9.05
2018-09-17T15:46:29.492Z,5.3
2018-09-17T15:52:24.520Z,6.22
2018-09-17T15:58:19.630Z,7.57
2018-09-17T16:04:14.532Z,5.4
2018-09-17T16:10:09.549Z,12.72
2018-09-17T16:16:04.551Z,5.42
2018-09-17T16:21:59.544Z,6.81
2018-09-17T16:27:54.587Z,8.57
2018-09-17T16:33:49.539Z,13.36
2018-09-17T16:39:44.533Z,9.41
2018-09-17T16:45:39.616Z,11.49
2018-09-17T16:51:34.541Z,8.23
2018-09-17T16:57:29.565Z,10.09
2018-09-17T17:03:24.573Z,6.94
2018-09-17T17:09:19.553Z,9.47
2018-09-17T17:15:14.561Z,13.64
2018-09-17T17:21:09.649Z,15.88
2018-09-17T17:27:04.602Z,18.33
2018-09-17T17:32:59.574Z,14.97
2018-09-17T17:38:54.623Z,17.73
2018-09-17T17:44:49.610Z,13.95
2018-09-17T17:50:44.601Z,12.96
2018-09-17T17:56:39.647Z,17.81
2018-09-17T18:02:34.587Z,15.38
2018-09-17T18:08:29.603Z,11.57
2018-09-17T18:14:24.691Z,21.26
2018-09-17T18:20:19.616Z,24.85
2018-09-17T18:26:14.609Z,20.28
2018-09-17T18:32:09.628Z,10.15
2018-09-17T18:38:04.618Z,16.35
2018-09-17T18:43:59.661Z,14.79
2018-09-17T18:49:54.632Z,14.94
2018-09-17T18:55:49.622Z,17.62
2018-09-17T19:01:44.651Z,23.87
2018-09-17T19:07:39.857Z,24.64
2018-09-17T19:13:34.661Z,18.85
2018-09-17T19:19:29.635Z,15.21
2018-09-17T19:25:24.675Z,18.51
2018-09-17T19:31:19.672Z,20.3
2018-09-17T19:37:14.665Z,14.06
2018-09-17T19:43:09.658Z,12.39
2018-09-17T19:49:04.668Z,13.41
2018-09-17T19:54:59.693Z,15.34
2018-09-17T20:00:54.831Z,11.07
2018-09-17T20:06:49.674Z,10.86
2018-09-17T20:12:44.761Z,8.68
2018-09-17T20:18:39.678Z,11.07
2018-09-17T20:24:34.685Z,9.37
2018-09-17T20:30:29.704Z,13.73
2018-09-17T20:36:24.696Z,10.18
2018-09-17T20:42:19.735Z,14.06
2018-09-17T20:48:14.705Z,10.84
2018-09-17T20:54:09.707Z,14.43
2018-09-17T21:00:04.700Z,14.1
2018-09-17T21:05:59.717Z,6.79
2018-09-17T21:11:54.758Z,8.41
2018-09-17T21:17:49.724Z,8.67
2018-09-17T21:23:44.758Z,9.12
2018-09-17T21:29:39.711Z,9.23
2018-09-17T21:35:34.735Z,9.78
2018-09-17T21:41:29.759Z,7.97
2018-09-17T21:47:24.832Z,5.59
2018-09-17T21:53:19.735Z,7.94
2018-09-17T21:59:14.798Z,6.81
2018-09-17T22:05:09.756Z,6.51
2018-09-17T22:11:04.762Z,5.38
2018-09-17T22:16:59.763Z,6.69
2018-09-17T22:22:54.788Z,8.07
2018-09-17T22:28:49.845Z,7.54
2018-09-17T22:34:44.777Z,6.49
2018-09-17T22:40:39.775Z,11.3
2018-09-17T22:46:34.762Z,9.55
2018-09-17T22:52:29.782Z,9.91
2018-09-17T22:58:24.779Z,10.36
2018-09-17T23:04:19.873Z,13.2
2018-09-17T23:10:14.796Z,6.93
2018-09-17T23:16:09.840Z,8.34
2018-09-17T23:22:04.815Z,17.63
2018-09-17T23:27:59.821Z,11.87
2018-09-17T23:33:54.813Z,10.27
2018-09-17T23:39:49.804Z,10.18
2018-09-17T23:45:44.830Z,12.83
2018-09-17T23:51:39.803Z,7.66
2018-09-17T23:57:34.834Z,10.83
